Air Resources Laboratory banner image
Air Resources Laboratory web site National Oceanic and Atmospheric Administration (NOAA)

nh metar


KAFN 161052Z AUTO 00000KT 10SM CLR 10/08 A3009 RMK AO2 SLP191 T01000083=
KASH 161056Z 31003KT 10SM CLR 14/13 A3008 RMK AO2 SLP188 T01440128 $=
KBML 161052Z AUTO 00000KT 1/4SM FG VV002 12/11 A3014 RMK AO2 SLP207 T01170111=
KCON 161051Z AUTO 00000KT 10SM CLR 12/11 A3008 RMK AO2 SLP185 T01170111=
KDAW 161051Z AUTO 32004KT 10SM CLR 15/12 A3007 RMK AO2 SLP177 T01500122=
KEEN 161056Z AUTO 00000KT 10SM CLR 10/09 RMK AO2 SLPNO T01000094 $=
KHIE 161052Z AUTO 00000KT 10SM FEW080 10/09 A3013 RMK AO2 SLP202 T01000089=
KLCI 161056Z AUTO 00000KT 10SM 14/14 A3009 RMK AO2 SLP189 T01440139 $=
KLEB 161053Z 00000KT 10SM CLR 11/09 A3011 RMK AO2 SLP190 T01110089=
KMHT 161053Z 36004KT 10SM SCT200 16/12 A3006 RMK AO2 SLP188 T01560117 $=